Time;durP1;ratioP1;P1;durP2;ratioP2;P2;SDS_P1;SDS_P2;PMS_P1;PMS_P2;Temp;Humidity;BMP_temperature;BMP_pressure;BME280_temperature;BME280_humidity;BME280_pressure;Samples;Min_cycle;Max_cycle;Signal;HPM_P1;HPM_P2
2023/04/05 00:02:17;;;;;;;14.38;9.13;;;;;;;;;;5051567;28;20045;-50
2023/04/05 00:04:49;;;;;;;13.70;9.50;;;;;;;;;;5051413;28;20178;-53
2023/04/05 00:07:16;;;;;;;13.23;9.25;;;;;;;;;;5051908;28;20291;-50
2023/04/05 00:09:43;;;;;;;11.40;8.95;;;;;;;;;;5051255;28;20052;-51
2023/04/05 00:12:10;;;;;;;14.63;9.20;;;;;;;;;;5051213;28;20048;-52
2023/04/05 00:14:39;;;;;;;14.38;9.40;;;;;;;;;;5051618;28;20464;-52
2023/04/05 00:17:05;;;;;;;14.85;9.20;;;;;;;;;;5051408;28;20056;-54
2023/04/05 00:19:34;;;;;;;13.98;8.77;;;;;;;;;;5051005;28;20124;-51
2023/04/05 00:22:00;;;;;;;12.73;9.57;;;;;;;;;;5051709;28;20057;-55
2023/04/05 00:24:28;;;;;;;14.55;9.32;;;;;;;;;;5052305;28;20048;-54
2023/04/05 00:26:55;;;;;;;16.67;10.23;;;;;;;;;;5053302;28;20144;-52
2023/04/05 00:29:22;;;;;;;13.90;9.32;;;;;;;;;;5053615;28;20053;-54
2023/04/05 00:31:50;;;;;;;12.55;9.10;;;;;;;;;;5052987;28;20057;-54
2023/04/05 00:34:17;;;;;;;14.60;9.77;;;;;;;;;;5053398;28;20116;-54
2023/04/05 00:36:44;;;;;;;13.15;9.07;;;;;;;;;;5053173;28;20045;-54
2023/04/05 00:39:11;;;;;;;13.55;8.88;;;;;;;;;;5052786;28;20412;-54
2023/04/05 00:41:38;;;;;;;13.52;8.80;;;;;;;;;;5052721;28;20452;-54
2023/04/05 00:44:06;;;;;;;13.85;9.02;;;;;;;;;;5053381;28;20053;-52
2023/04/05 00:46:35;;;;;;;11.73;8.20;;;;;;;;;;5052791;28;20053;-51
2023/04/05 00:49:03;;;;;;;13.98;8.75;;;;;;;;;;5052830;28;20059;-55
2023/04/05 00:51:32;;;;;;;13.52;8.27;;;;;;;;;;5052835;28;20413;-51
2023/04/05 00:53:59;;;;;;;13.52;8.35;;;;;;;;;;5053142;28;20251;-53
2023/04/05 00:56:27;;;;;;;13.55;8.70;;;;;;;;;;5053344;28;20057;-53
2023/04/05 00:58:54;;;;;;;12.73;8.00;;;;;;;;;;5052874;28;20048;-51
2023/04/05 01:01:22;;;;;;;19.02;9.00;;;;;;;;;;5053082;28;20057;-54
2023/04/05 01:03:53;;;;;;;11.82;8.32;;;;;;;;;;5054572;28;20052;-54
2023/04/05 01:06:35;;;;;;;13.30;8.38;;;;;;;;;;5056844;28;20085;-56
2023/04/05 01:09:08;;;;;;;13.93;8.50;;;;;;;;;;5056888;28;20061;-53
2023/04/05 01:11:38;;;;;;;11.23;8.35;;;;;;;;;;5056570;28;20057;-54
2023/04/05 01:14:05;;;;;;;12.57;8.27;;;;;;;;;;5057057;28;20049;-54
2023/04/05 01:19:57;;;;;;;12.50;7.85;;;;;;;;;;5053978;28;20048;-53
2023/04/05 01:23:05;;;;;;;13.25;8.32;;;;;;;;;;5055948;28;20053;-52
2023/04/05 01:25:58;;;;;;;13.07;8.70;;;;;;;;;;5056267;28;20137;-54
2023/04/05 01:28:49;;;;;;;13.07;8.82;;;;;;;;;;5056414;28;20472;-54
2023/04/05 01:31:23;;;;;;;12.60;8.43;;;;;;;;;;5056153;28;20171;-51
2023/04/05 01:33:55;;;;;;;14.75;8.95;;;;;;;;;;5056212;28;20053;-51
2023/04/05 01:36:31;;;;;;;14.20;8.48;;;;;;;;;;5055821;28;20048;-51
2023/04/05 01:38:58;;;;;;;15.18;9.52;;;;;;;;;;5055993;28;20045;-53
2023/04/05 01:41:26;;;;;;;13.60;8.85;;;;;;;;;;5056096;28;20295;-55
2023/04/05 01:43:52;;;;;;;13.25;9.30;;;;;;;;;;5056058;28;20135;-56
2023/04/05 01:46:21;;;;;;;14.90;8.73;;;;;;;;;;5055658;28;20053;-52
2023/04/05 01:48:47;;;;;;;11.70;8.77;;;;;;;;;;5055784;28;20061;-53
2023/04/05 01:51:14;;;;;;;14.57;9.35;;;;;;;;;;5055762;28;20053;-52
2023/04/05 01:53:41;;;;;;;12.95;9.07;;;;;;;;;;5055914;28;20409;-54
2023/04/05 01:56:08;;;;;;;13.70;8.75;;;;;;;;;;5055603;28;20053;-56
2023/04/05 01:58:34;;;;;;;12.98;8.70;;;;;;;;;;5056047;28;20383;-56
2023/04/05 02:01:01;;;;;;;16.85;9.85;;;;;;;;;;5055920;28;20048;-53
2023/04/05 02:03:29;;;;;;;17.38;10.55;;;;;;;;;;5055737;28;20458;-53
2023/04/05 02:05:57;;;;;;;15.43;9.88;;;;;;;;;;5056150;28;20044;-52
2023/04/05 02:08:24;;;;;;;13.25;9.25;;;;;;;;;;5056002;28;20103;-50
2023/04/05 02:10:53;;;;;;;15.55;9.27;;;;;;;;;;5055132;28;20498;-53
2023/04/05 02:13:20;;;;;;;13.82;9.50;;;;;;;;;;5056361;28;20049;-54
2023/04/05 02:15:49;;;;;;;15.02;9.23;;;;;;;;;;5056178;28;20570;-53
2023/04/05 02:18:20;;;;;;;15.15;9.02;;;;;;;;;;5055360;28;20045;-50
2023/04/05 02:20:49;;;;;;;14.55;9.20;;;;;;;;;;5055017;28;20479;-54
2023/04/05 02:23:16;;;;;;;13.88;9.18;;;;;;;;;;5053753;28;20103;-61
2023/04/05 02:25:42;;;;;;;15.20;9.15;;;;;;;;;;5053404;28;20080;-60
2023/04/05 02:28:09;;;;;;;15.10;10.10;;;;;;;;;;5053277;28;20099;-58
2023/04/05 02:30:39;;;;;;;16.42;9.65;;;;;;;;;;5053344;28;20490;-60
2023/04/05 02:33:08;;;;;;;16.85;9.25;;;;;;;;;;5053702;28;20057;-59
2023/04/05 02:35:35;;;;;;;17.30;11.25;;;;;;;;;;5053444;28;20076;-59
2023/04/05 02:38:03;;;;;;;14.35;10.05;;;;;;;;;;5053285;28;20052;-60
2023/04/05 02:40:30;;;;;;;14.80;9.38;;;;;;;;;;5053312;28;20103;-57
2023/04/05 02:42:57;;;;;;;15.43;10.30;;;;;;;;;;5053204;28;20044;-61
2023/04/05 02:45:23;;;;;;;13.65;9.65;;;;;;;;;;5053136;28;20130;-61
2023/04/05 02:47:50;;;;;;;16.77;10.85;;;;;;;;;;5052863;28;20452;-59
2023/04/05 02:50:19;;;;;;;16.75;10.27;;;;;;;;;;5053005;28;20460;-60
2023/04/05 02:52:46;;;;;;;16.15;10.38;;;;;;;;;;5053198;28;20405;-60
2023/04/05 02:55:14;;;;;;;16.98;10.57;;;;;;;;;;5052989;28;20049;-56
2023/04/05 02:57:41;;;;;;;15.10;9.57;;;;;;;;;;5052903;28;20064;-59
2023/04/05 03:00:10;;;;;;;16.63;10.15;;;;;;;;;;5052745;28;20363;-60
2023/04/05 03:02:38;;;;;;;14.63;10.00;;;;;;;;;;5052754;28;20111;-60
2023/04/05 03:05:06;;;;;;;13.75;9.07;;;;;;;;;;5052841;28;20592;-60
2023/04/05 03:07:34;;;;;;;12.30;9.07;;;;;;;;;;5052866;28;20072;-60
2023/04/05 03:10:01;;;;;;;15.85;9.27;;;;;;;;;;5052391;28;20087;-58
2023/04/05 03:12:29;;;;;;;15.32;11.02;;;;;;;;;;5052471;28;20045;-58
2023/04/05 03:14:56;;;;;;;18.25;10.05;;;;;;;;;;5052477;28;20054;-56
2023/04/05 03:17:23;;;;;;;15.48;10.02;;;;;;;;;;5052511;28;20477;-58
2023/04/05 03:19:49;;;;;;;17.17;10.35;;;;;;;;;;5052321;28;20461;-59
2023/04/05 03:22:16;;;;;;;16.20;10.85;;;;;;;;;;5052328;28;20107;-59
2023/04/05 03:24:43;;;;;;;15.00;10.07;;;;;;;;;;5052322;28;20485;-59
2023/04/05 03:27:10;;;;;;;17.02;11.10;;;;;;;;;;5051739;28;20049;-59
2023/04/05 03:29:38;;;;;;;16.75;10.77;;;;;;;;;;5052295;28;20114;-61
2023/04/05 03:32:10;;;;;;;15.35;10.25;;;;;;;;;;5052225;28;20053;-59
2023/04/05 03:34:37;;;;;;;18.15;10.05;;;;;;;;;;5052261;28;20057;-59
2023/04/05 03:37:04;;;;;;;16.65;10.25;;;;;;;;;;5051955;28;20060;-57
2023/04/05 03:39:31;;;;;;;14.13;9.77;;;;;;;;;;5051995;28;20052;-60
2023/04/05 03:41:57;;;;;;;19.73;10.45;;;;;;;;;;5052005;28;20057;-59
2023/04/05 03:44:24;;;;;;;15.40;10.13;;;;;;;;;;5051903;28;20175;-58
2023/04/05 03:46:52;;;;;;;16.88;11.05;;;;;;;;;;5052379;28;20099;-60
2023/04/05 03:49:19;;;;;;;15.70;9.95;;;;;;;;;;5051686;28;20045;-59
2023/04/05 03:51:46;;;;;;;14.57;10.57;;;;;;;;;;5051735;28;20362;-60
2023/04/05 03:54:13;;;;;;;17.38;11.38;;;;;;;;;;5051901;28;20406;-60
2023/04/05 03:56:40;;;;;;;16.08;10.00;;;;;;;;;;5051751;28;20052;-60
2023/04/05 03:59:06;;;;;;;19.25;11.02;;;;;;;;;;5051575;28;20491;-57
2023/04/05 04:01:33;;;;;;;15.45;10.68;;;;;;;;;;5051451;28;20059;-59
2023/04/05 04:04:03;;;;;;;16.48;11.35;;;;;;;;;;5051587;28;20052;-55
2023/04/05 04:06:30;;;;;;;14.50;9.87;;;;;;;;;;5051828;28;20461;-61
2023/04/05 04:08:57;;;;;;;15.95;10.77;;;;;;;;;;5051581;28;20309;-57
2023/04/05 04:11:24;;;;;;;18.52;11.07;;;;;;;;;;5051534;28;20049;-61
2023/04/05 04:13:51;;;;;;;18.50;10.85;;;;;;;;;;5051602;28;20053;-58
2023/04/05 04:16:18;;;;;;;18.90;10.32;;;;;;;;;;5051608;28;20092;-57
2023/04/05 04:18:45;;;;;;;15.43;10.10;;;;;;;;;;5051320;28;20049;-53
2023/04/05 04:21:16;;;;;;;17.73;11.07;;;;;;;;;;5051330;28;20057;-54
2023/04/05 04:23:44;;;;;;;20.35;10.98;;;;;;;;;;5051460;28;20114;-51
2023/04/05 04:26:13;;;;;;;16.38;10.48;;;;;;;;;;5051458;28;20053;-51
2023/04/05 04:28:42;;;;;;;20.13;11.35;;;;;;;;;;5051019;28;20049;-54
2023/04/05 04:31:12;;;;;;;17.58;11.10;;;;;;;;;;5051647;28;20057;-50
2023/04/05 04:33:42;;;;;;;17.65;10.65;;;;;;;;;;5051494;28;20140;-55
2023/04/05 04:36:12;;;;;;;15.90;10.52;;;;;;;;;;5051212;28;20064;-51
2023/04/05 04:38:41;;;;;;;17.40;10.67;;;;;;;;;;5052548;28;20119;-53
2023/04/05 04:41:09;;;;;;;17.60;10.43;;;;;;;;;;5055121;28;20065;-54
2023/04/05 04:43:41;;;;;;;19.95;10.75;;;;;;;;;;5055278;28;20469;-54
2023/04/05 04:46:13;;;;;;;16.15;10.75;;;;;;;;;;5055371;28;20060;-51
2023/04/05 04:48:42;;;;;;;15.18;10.25;;;;;;;;;;5055251;28;20056;-54
2023/04/05 04:51:09;;;;;;;17.30;10.45;;;;;;;;;;5055036;28;20132;-53
2023/04/05 04:53:36;;;;;;;15.43;9.98;;;;;;;;;;5055301;28;20413;-54
2023/04/05 04:56:07;;;;;;;16.02;9.82;;;;;;;;;;5055222;28;20119;-53
2023/04/05 04:58:34;;;;;;;15.90;10.27;;;;;;;;;;5055047;28;20053;-58
2023/04/05 05:01:07;;;;;;;15.98;10.20;;;;;;;;;;5054846;28;20486;-55
2023/04/05 05:03:35;;;;;;;18.88;11.13;;;;;;;;;;5055008;28;20056;-58
2023/04/05 05:06:02;;;;;;;15.85;10.60;;;;;;;;;;5055169;28;20055;-57
2023/04/05 05:08:29;;;;;;;17.10;10.13;;;;;;;;;;5054555;28;20045;-57
2023/04/05 05:10:56;;;;;;;18.95;10.90;;;;;;;;;;5054766;28;20144;-54
2023/04/05 05:13:24;;;;;;;14.77;10.48;;;;;;;;;;5054742;28;20057;-54
2023/04/05 05:15:51;;;;;;;17.17;10.05;;;;;;;;;;5054854;28;20060;-58
2023/04/05 05:18:18;;;;;;;16.35;10.63;;;;;;;;;;5055122;28;20080;-52
2023/04/05 05:20:45;;;;;;;16.75;9.75;;;;;;;;;;5054303;28;20103;-56
2023/04/05 05:23:12;;;;;;;14.95;10.30;;;;;;;;;;5054720;28;20515;-56
2023/04/05 05:25:39;;;;;;;16.40;10.00;;;;;;;;;;5054497;28;20053;-55
2023/04/05 05:28:06;;;;;;;15.63;10.23;;;;;;;;;;5054426;28;20056;-56
2023/04/05 05:30:34;;;;;;;15.70;9.63;;;;;;;;;;5054564;28;20045;-57
2023/04/05 05:33:01;;;;;;;16.80;9.10;;;;;;;;;;5054220;28;20052;-55
2023/04/05 05:35:28;;;;;;;16.77;9.73;;;;;;;;;;5054403;28;20049;-55
2023/04/05 05:37:55;;;;;;;16.55;9.90;;;;;;;;;;5054154;28;20049;-57
2023/04/05 05:40:22;;;;;;;17.52;9.75;;;;;;;;;;5054131;28;20053;-57
2023/04/05 05:42:49;;;;;;;16.00;10.25;;;;;;;;;;5054007;28;20114;-55
2023/04/05 05:45:16;;;;;;;13.77;7.78;;;;;;;;;;5054363;28;20114;-57
2023/04/05 05:47:44;;;;;;;13.30;7.68;;;;;;;;;;5053956;28;20045;-58
2023/04/05 05:50:11;;;;;;;12.57;8.77;;;;;;;;;;5053016;28;20052;-54
2023/04/05 05:52:38;;;;;;;13.88;8.88;;;;;;;;;;5053974;28;20521;-56
2023/04/05 05:55:06;;;;;;;15.68;8.77;;;;;;;;;;5054013;28;20064;-54
2023/04/05 05:57:32;;;;;;;12.32;8.07;;;;;;;;;;5054222;28;20049;-55
2023/04/05 05:59:59;;;;;;;13.63;7.88;;;;;;;;;;5053894;28;20073;-54
2023/04/05 06:02:27;;;;;;;13.75;8.63;;;;;;;;;;5054315;28;20498;-57
2023/04/05 06:04:56;;;;;;;11.98;7.45;;;;;;;;;;5053999;28;20084;-56
2023/04/05 06:07:23;;;;;;;13.98;7.25;;;;;;;;;;5054089;28;20084;-56
2023/04/05 06:09:50;;;;;;;14.52;8.73;;;;;;;;;;5054379;28;20512;-51
2023/04/05 06:12:17;;;;;;;13.40;7.55;;;;;;;;;;5054282;28;20497;-52
2023/04/05 06:14:43;;;;;;;12.30;7.03;;;;;;;;;;5053529;28;20490;-54
2023/04/05 06:17:10;;;;;;;11.63;7.10;;;;;;;;;;5053731;28;20103;-52
2023/04/05 06:19:37;;;;;;;13.00;7.07;;;;;;;;;;5053900;28;20045;-51
2023/04/05 06:22:05;;;;;;;11.68;5.93;;;;;;;;;;5053917;28;20053;-55
2023/04/05 06:24:32;;;;;;;12.27;6.65;;;;;;;;;;5053706;28;20452;-55
2023/04/05 06:27:00;;;;;;;11.40;6.25;;;;;;;;;;5053926;28;20045;-53
2023/04/05 06:29:26;;;;;;;9.43;6.28;;;;;;;;;;5053480;28;20059;-54
2023/04/05 06:31:55;;;;;;;12.85;7.18;;;;;;;;;;5053680;28;20053;-53
2023/04/05 06:34:22;;;;;;;11.45;5.93;;;;;;;;;;5053156;28;20049;-55
2023/04/05 06:36:49;;;;;;;10.50;6.93;;;;;;;;;;5053592;28;20106;-53
2023/04/05 06:39:17;;;;;;;11.00;6.95;;;;;;;;;;5053261;28;20102;-54
2023/04/05 06:41:44;;;;;;;9.18;5.80;;;;;;;;;;5053749;28;20053;-55
2023/04/05 06:44:11;;;;;;;10.90;6.78;;;;;;;;;;5053181;28;20048;-51
2023/04/05 06:46:37;;;;;;;12.40;6.45;;;;;;;;;;5053501;28;20057;-50
2023/04/05 06:49:04;;;;;;;10.52;6.25;;;;;;;;;;5052761;28;20049;-53
2023/04/05 06:51:31;;;;;;;13.88;6.07;;;;;;;;;;5052727;28;20049;-52
2023/04/05 06:53:58;;;;;;;9.30;5.75;;;;;;;;;;5052830;28;20045;-50
2023/04/05 06:56:28;;;;;;;9.77;5.68;;;;;;;;;;5052961;28;20053;-54
2023/04/05 06:58:56;;;;;;;8.23;5.78;;;;;;;;;;5050014;28;20141;-54
2023/04/05 07:01:25;;;;;;;10.38;6.30;;;;;;;;;;5051918;28;20395;-53
2023/04/05 07:03:51;;;;;;;11.77;6.38;;;;;;;;;;5052989;28;20506;-54
2023/04/05 07:06:18;;;;;;;10.20;6.05;;;;;;;;;;5051207;28;20049;-55
2023/04/05 07:08:45;;;;;;;13.15;6.80;;;;;;;;;;5050371;28;20094;-53
2023/04/05 07:11:13;;;;;;;11.70;6.63;;;;;;;;;;5050466;28;20053;-55
2023/04/05 07:13:41;;;;;;;10.48;6.90;;;;;;;;;;5050036;28;20045;-55
2023/04/05 07:16:08;;;;;;;9.57;5.78;;;;;;;;;;5050759;28;20060;-55
2023/04/05 07:18:35;;;;;;;10.55;5.63;;;;;;;;;;5050508;28;20078;-56
2023/04/05 07:21:02;;;;;;;10.13;6.05;;;;;;;;;;5051136;28;20049;-54
2023/04/05 07:23:29;;;;;;;10.63;6.53;;;;;;;;;;5050367;28;20063;-56
2023/04/05 07:26:03;;;;;;;10.15;6.55;;;;;;;;;;5050404;28;20072;-53
2023/04/05 07:28:30;;;;;;;10.35;6.75;;;;;;;;;;5050159;28;20045;-51
2023/04/05 07:30:58;;;;;;;11.50;6.70;;;;;;;;;;5050515;28;20052;-52
2023/04/05 07:33:26;;;;;;;11.35;6.32;;;;;;;;;;5050469;28;20162;-56
2023/04/05 07:35:53;;;;;;;9.63;6.10;;;;;;;;;;5050452;28;20053;-51
2023/04/05 07:38:20;;;;;;;10.73;6.43;;;;;;;;;;5050208;28;20059;-53
2023/04/05 07:40:48;;;;;;;10.70;6.43;;;;;;;;;;5050326;28;20418;-54
2023/04/05 07:43:15;;;;;;;12.38;7.00;;;;;;;;;;5050238;28;20099;-53
2023/04/05 07:45:42;;;;;;;12.48;6.85;;;;;;;;;;5050545;28;20465;-52
2023/04/05 07:48:10;;;;;;;12.23;6.30;;;;;;;;;;5050544;28;20059;-55
2023/04/05 07:50:39;;;;;;;11.30;6.03;;;;;;;;;;5050812;28;20057;-55
2023/04/05 07:53:07;;;;;;;11.13;6.63;;;;;;;;;;5050130;28;20084;-55
2023/04/05 07:55:33;;;;;;;9.95;6.50;;;;;;;;;;5050423;28;20057;-55
2023/04/05 07:58:00;;;;;;;12.02;6.80;;;;;;;;;;5050116;28;20149;-56
2023/04/05 08:00:27;;;;;;;11.23;6.65;;;;;;;;;;5050526;28;20443;-55
2023/04/05 08:02:54;;;;;;;10.10;6.53;;;;;;;;;;5050016;28;20045;-56
2023/04/05 08:05:22;;;;;;;10.40;6.53;;;;;;;;;;5050182;28;20486;-54
2023/04/05 08:07:49;;;;;;;10.65;7.20;;;;;;;;;;5050214;28;20083;-54
2023/04/05 08:10:15;;;;;;;11.88;6.05;;;;;;;;;;5049837;28;20134;-57
2023/04/05 08:12:42;;;;;;;9.70;6.53;;;;;;;;;;5050084;28;20049;-54
2023/04/05 08:15:10;;;;;;;9.80;6.15;;;;;;;;;;5050156;28;20114;-53
2023/04/05 08:17:37;;;;;;;12.95;7.38;;;;;;;;;;5049869;28;20049;-56
2023/04/05 08:20:05;;;;;;;9.50;6.10;;;;;;;;;;5050014;28;20053;-53
2023/04/05 08:22:33;;;;;;;12.15;6.30;;;;;;;;;;5049467;28;20114;-55
2023/04/05 08:24:59;;;;;;;8.98;5.80;;;;;;;;;;5049747;28;20052;-54
2023/04/05 08:27:26;;;;;;;9.90;6.00;;;;;;;;;;5050252;28;20293;-55
2023/04/05 08:29:53;;;;;;;10.65;6.55;;;;;;;;;;5049584;28;20052;-56
2023/04/05 08:32:20;;;;;;;10.30;6.47;;;;;;;;;;5049410;28;20061;-53
2023/04/05 08:34:46;;;;;;;11.90;6.15;;;;;;;;;;5049905;28;20053;-53
2023/04/05 08:37:13;;;;;;;9.68;5.95;;;;;;;;;;5049483;28;20051;-56
2023/04/05 08:39:42;;;;;;;15.27;6.88;;;;;;;;;;5049634;28;20049;-56
2023/04/05 08:42:15;;;;;;;11.20;7.28;;;;;;;;;;5049626;28;20437;-54
2023/04/05 08:44:44;;;;;;;10.95;6.68;;;;;;;;;;5050075;28;20081;-53
2023/04/05 08:47:17;;;;;;;10.13;6.68;;;;;;;;;;5049530;28;20617;-54
2023/04/05 08:49:44;;;;;;;11.65;6.70;;;;;;;;;;5049517;28;20132;-56
2023/04/05 08:52:11;;;;;;;12.07;6.57;;;;;;;;;;5049776;28;20049;-55
2023/04/05 08:54:38;;;;;;;9.85;6.57;;;;;;;;;;5049364;28;20136;-54
2023/04/05 08:57:07;;;;;;;10.40;6.85;;;;;;;;;;5049563;28;20440;-54
2023/04/05 08:59:37;;;;;;;9.43;6.82;;;;;;;;;;5049063;28;20059;-54
2023/04/05 09:02:12;;;;;;;9.63;6.13;;;;;;;;;;5049232;28;20049;-56
2023/04/05 09:04:43;;;;;;;9.18;5.95;;;;;;;;;;5049523;28;20091;-55
2023/04/05 09:07:13;;;;;;;9.30;6.53;;;;;;;;;;5049241;28;20409;-56
2023/04/05 09:09:44;;;;;;;12.10;6.55;;;;;;;;;;5049083;28;20114;-53
2023/04/05 09:12:12;;;;;;;8.48;5.97;;;;;;;;;;5049086;28;20053;-55
2023/04/05 09:14:39;;;;;;;9.30;5.85;;;;;;;;;;5049179;28;20048;-57
2023/04/05 09:17:06;;;;;;;13.38;6.53;;;;;;;;;;5049223;28;20717;-53
2023/04/05 09:19:33;;;;;;;11.77;6.38;;;;;;;;;;5049375;28;20102;-53
2023/04/05 09:22:01;;;;;;;11.10;6.05;;;;;;;;;;5049307;28;20049;-55
2023/04/05 09:24:33;;;;;;;10.68;6.35;;;;;;;;;;5049739;28;20048;-53
2023/04/05 09:27:08;;;;;;;10.10;5.80;;;;;;;;;;5053111;28;20516;-54
2023/04/05 09:29:37;;;;;;;9.93;6.20;;;;;;;;;;5052453;28;20049;-56
2023/04/05 09:32:05;;;;;;;9.10;6.25;;;;;;;;;;5052703;28;20057;-54
2023/04/05 09:34:33;;;;;;;9.82;6.40;;;;;;;;;;5052800;28;20052;-52
2023/04/05 09:36:59;;;;;;;9.63;5.90;;;;;;;;;;5052443;28;20049;-56
2023/04/05 09:39:31;;;;;;;9.30;6.32;;;;;;;;;;5052561;28;20123;-54
2023/04/05 09:42:08;;;;;;;8.73;6.03;;;;;;;;;;5052099;28;20147;-54
2023/04/05 09:44:56;;;;;;;11.05;6.55;;;;;;;;;;5052292;28;20053;-56
2023/04/05 09:47:26;;;;;;;11.98;5.78;;;;;;;;;;5051994;28;20053;-57
2023/04/05 09:49:53;;;;;;;8.68;6.00;;;;;;;;;;5052480;28;20048;-54
2023/04/05 09:52:21;;;;;;;11.23;6.20;;;;;;;;;;5052089;28;20388;-56
2023/04/05 09:54:49;;;;;;;10.60;6.35;;;;;;;;;;5052103;28;20049;-57
2023/04/05 09:57:17;;;;;;;9.75;5.78;;;;;;;;;;5051977;28;20053;-57
2023/04/05 09:59:44;;;;;;;9.27;5.78;;;;;;;;;;5052029;28;20148;-57
2023/04/05 10:02:13;;;;;;;9.43;6.50;;;;;;;;;;5051875;28;20053;-54
2023/04/05 10:04:41;;;;;;;9.85;6.30;;;;;;;;;;5052338;28;20053;-53
2023/04/05 10:07:10;;;;;;;8.77;5.75;;;;;;;;;;5051913;28;20040;-54
2023/04/05 10:09:38;;;;;;;10.98;7.03;;;;;;;;;;5052604;28;20468;-57
2023/04/05 10:12:06;;;;;;;9.25;6.63;;;;;;;;;;5052061;28;20122;-54
2023/04/05 10:14:33;;;;;;;9.77;6.97;;;;;;;;;;5052321;28;20133;-59
2023/04/05 10:17:09;;;;;;;9.00;6.13;;;;;;;;;;5052042;28;20072;-60
2023/04/05 10:19:57;;;;;;;8.93;6.60;;;;;;;;;;5052214;28;20051;-59
2023/04/05 10:22:29;;;;;;;10.45;5.70;;;;;;;;;;5051769;28;20098;-57
2023/04/05 10:25:03;;;;;;;11.68;7.20;;;;;;;;;;5052223;28;20048;-59
2023/04/05 10:27:32;;;;;;;10.55;6.82;;;;;;;;;;5052203;28;20053;-59
2023/04/05 10:30:07;;;;;;;13.20;7.38;;;;;;;;;;5051580;28;20053;-55
2023/04/05 10:32:52;;;;;;;10.43;6.85;;;;;;;;;;5051669;28;20141;-58
2023/04/05 10:35:28;;;;;;;28.10;13.13;;;;;;;;;;5051766;28;20139;-56
2023/04/05 10:38:10;;;;;;;12.70;7.65;;;;;;;;;;5051819;28;20045;-60
2023/04/05 10:40:37;;;;;;;8.93;6.70;;;;;;;;;;5052054;28;20535;-59
2023/04/05 10:43:07;;;;;;;9.82;6.40;;;;;;;;;;5051806;28;20049;-57
2023/04/05 10:45:36;;;;;;;9.95;6.68;;;;;;;;;;5051636;28;20116;-58
2023/04/05 10:48:11;;;;;;;9.95;6.40;;;;;;;;;;5051477;28;20053;-54
2023/04/05 10:50:40;;;;;;;9.48;6.18;;;;;;;;;;5051409;28;20053;-55
2023/04/05 10:53:09;;;;;;;10.00;6.45;;;;;;;;;;5051121;28;20080;-59
2023/04/05 10:55:36;;;;;;;9.77;6.20;;;;;;;;;;5051632;28;20556;-60
2023/04/05 10:58:04;;;;;;;10.13;6.90;;;;;;;;;;5051563;28;20053;-61
2023/04/05 11:00:31;;;;;;;8.45;6.32;;;;;;;;;;5051575;28;20575;-60
2023/04/05 11:02:57;;;;;;;9.13;6.25;;;;;;;;;;5051318;28;20055;-60
2023/04/05 11:05:33;;;;;;;10.23;6.20;;;;;;;;;;5051315;28;20049;-61
2023/04/05 11:08:08;;;;;;;11.05;6.70;;;;;;;;;;5051023;28;20057;-61
2023/04/05 11:10:36;;;;;;;8.50;5.80;;;;;;;;;;5051179;28;20053;-61
2023/04/05 11:13:05;;;;;;;9.35;6.57;;;;;;;;;;5051045;28;20460;-61
2023/04/05 11:15:33;;;;;;;10.20;6.60;;;;;;;;;;5051143;28;20052;-59
2023/04/05 11:18:04;;;;;;;10.48;6.75;;;;;;;;;;5051222;28;20502;-62
2023/04/05 11:20:40;;;;;;;10.60;7.07;;;;;;;;;;5050818;28;20053;-59
2023/04/05 11:23:08;;;;;;;9.35;6.70;;;;;;;;;;5051176;28;20052;-59
2023/04/05 11:25:38;;;;;;;10.15;6.80;;;;;;;;;;5050847;28;20056;-59
2023/04/05 11:28:07;;;;;;;9.27;6.55;;;;;;;;;;5050912;28;20065;-59
2023/04/05 11:30:47;;;;;;;11.40;6.60;;;;;;;;;;5050683;28;20102;-59
2023/04/05 11:33:38;;;;;;;9.13;7.07;;;;;;;;;;5050813;28;20049;-61
2023/04/05 11:36:06;;;;;;;9.88;6.68;;;;;;;;;;5050812;28;20060;-61
2023/04/05 11:38:34;;;;;;;14.77;6.97;;;;;;;;;;5050443;28;20136;-59
2023/04/05 11:41:11;;;;;;;8.95;6.63;;;;;;;;;;5050435;28;20141;-65
2023/04/05 11:43:38;;;;;;;11.75;7.50;;;;;;;;;;5050976;28;20103;-59
2023/04/05 11:46:05;;;;;;;13.70;7.40;;;;;;;;;;5050888;28;20508;-60
2023/04/05 11:48:33;;;;;;;9.85;6.95;;;;;;;;;;5050866;28;20064;-59
2023/04/05 11:51:00;;;;;;;10.63;6.20;;;;;;;;;;5051301;28;20080;-57
2023/04/05 11:53:28;;;;;;;9.18;6.78;;;;;;;;;;5051499;28;20098;-60
2023/04/05 11:56:07;;;;;;;9.85;6.38;;;;;;;;;;5052310;28;20127;-60
2023/04/05 11:58:35;;;;;;;11.20;6.40;;;;;;;;;;5051232;28;20413;-60
2023/04/05 12:01:05;;;;;;;9.50;6.82;;;;;;;;;;5051027;28;20199;-60
2023/04/05 12:03:33;;;;;;;11.00;6.13;;;;;;;;;;5050628;28;20061;-61
2023/04/05 12:06:02;;;;;;;9.27;5.82;;;;;;;;;;5050508;28;20821;-61
2023/04/05 12:08:38;;;;;;;13.07;6.63;;;;;;;;;;5050413;28;20044;-62
2023/04/05 12:11:08;;;;;;;9.98;6.57;;;;;;;;;;5050456;28;20080;-61
2023/04/05 12:13:36;;;;;;;9.57;7.05;;;;;;;;;;5050057;28;20129;-61
2023/04/05 12:16:04;;;;;;;9.70;6.72;;;;;;;;;;5050178;28;20049;-60
2023/04/05 12:18:32;;;;;;;10.50;7.07;;;;;;;;;;5050261;28;20124;-59
2023/04/05 12:21:01;;;;;;;12.85;7.40;;;;;;;;;;5050387;28;20119;-60
2023/04/05 12:23:28;;;;;;;9.45;7.43;;;;;;;;;;5050002;28;20052;-61
2023/04/05 12:25:56;;;;;;;11.05;7.15;;;;;;;;;;5050059;28;20048;-62
2023/04/05 12:28:24;;;;;;;8.93;7.30;;;;;;;;;;5049993;28;20052;-61
2023/04/05 12:30:53;;;;;;;10.02;7.13;;;;;;;;;;5049707;28;20072;-61
2023/04/05 12:33:29;;;;;;;13.10;7.47;;;;;;;;;;5050021;28;20061;-60
2023/04/05 12:35:56;;;;;;;11.07;7.57;;;;;;;;;;5049799;28;20052;-59
2023/04/05 12:38:27;;;;;;;9.18;7.07;;;;;;;;;;5049866;28;20053;-60
2023/04/05 12:40:54;;;;;;;10.18;7.40;;;;;;;;;;5049910;28;20135;-60
2023/04/05 12:43:21;;;;;;;9.95;7.15;;;;;;;;;;5049615;28;20635;-58
2023/04/05 12:45:52;;;;;;;10.00;7.65;;;;;;;;;;5050014;28;20052;-59
2023/04/05 12:48:22;;;;;;;9.63;7.20;;;;;;;;;;5050070;28;20065;-59
2023/04/05 12:50:50;;;;;;;9.35;6.75;;;;;;;;;;5049842;28;20045;-62
2023/04/05 12:53:19;;;;;;;12.63;7.47;;;;;;;;;;5049982;28;20410;-61
2023/04/05 12:55:49;;;;;;;10.25;6.85;;;;;;;;;;5050006;28;20049;-61
2023/04/05 12:58:18;;;;;;;11.48;7.60;;;;;;;;;;5049846;28;20437;-61
2023/04/05 13:00:49;;;;;;;11.68;8.07;;;;;;;;;;5052539;28;20609;-60
2023/04/05 13:03:19;;;;;;;10.57;8.15;;;;;;;;;;5053391;28;20041;-62
2023/04/05 13:05:46;;;;;;;10.88;7.45;;;;;;;;;;5053658;28;20092;-58
2023/04/05 13:08:12;;;;;;;12.00;8.00;;;;;;;;;;5053108;28;20049;-60
2023/04/05 13:10:39;;;;;;;9.70;7.50;;;;;;;;;;5053558;28;20053;-60
2023/04/05 13:13:06;;;;;;;12.27;7.53;;;;;;;;;;5053699;28;20049;-59
2023/04/05 13:15:33;;;;;;;10.20;6.90;;;;;;;;;;5053529;28;20045;-59
2023/04/05 13:18:01;;;;;;;7.80;5.90;;;;;;;;;;5053050;28;20383;-60
2023/04/05 13:20:28;;;;;;;9.32;6.28;;;;;;;;;;5053258;28;20293;-60
2023/04/05 13:22:55;;;;;;;9.52;7.20;;;;;;;;;;5052609;28;20045;-61
2023/04/05 13:25:22;;;;;;;9.65;7.32;;;;;;;;;;5053177;28;20114;-58
2023/04/05 13:27:49;;;;;;;13.18;7.60;;;;;;;;;;5052961;28;20044;-60
2023/04/05 13:30:16;;;;;;;12.75;7.53;;;;;;;;;;5052826;28;20099;-59
2023/04/05 13:32:43;;;;;;;8.32;6.68;;;;;;;;;;5052836;28;20049;-62
2023/04/05 13:35:11;;;;;;;10.05;7.10;;;;;;;;;;5053088;28;20449;-61
2023/04/05 13:37:38;;;;;;;10.45;6.63;;;;;;;;;;5053495;28;20437;-62
2023/04/05 13:40:07;;;;;;;8.38;6.88;;;;;;;;;;5053058;28;20041;-62
2023/04/05 13:42:33;;;;;;;10.00;6.80;;;;;;;;;;5052722;28;20052;-61
2023/04/05 13:45:00;;;;;;;8.82;6.78;;;;;;;;;;5052806;28;20057;-62
2023/04/05 13:47:27;;;;;;;10.07;7.30;;;;;;;;;;5052619;28;20559;-61
2023/04/05 13:49:54;;;;;;;9.95;7.05;;;;;;;;;;5052420;28;20048;-62
2023/04/05 13:52:22;;;;;;;9.95;6.63;;;;;;;;;;5052702;28;20083;-61
2023/04/05 13:54:49;;;;;;;9.48;7.45;;;;;;;;;;5052427;28;20052;-62
2023/04/05 13:57:15;;;;;;;9.35;6.55;;;;;;;;;;5052631;28;20127;-62
2023/04/05 13:59:42;;;;;;;13.73;7.40;;;;;;;;;;5052623;28;20053;-61
2023/04/05 14:02:10;;;;;;;9.13;7.25;;;;;;;;;;5052567;28;20048;-59
2023/04/05 14:04:38;;;;;;;8.57;7.60;;;;;;;;;;5052361;28;20052;-62
2023/04/05 14:07:05;;;;;;;10.02;7.05;;;;;;;;;;5052785;28;20080;-61
2023/04/05 14:09:33;;;;;;;10.05;6.95;;;;;;;;;;5052530;28;20155;-59
2023/04/05 14:12:01;;;;;;;7.80;6.70;;;;;;;;;;5051964;28;20460;-61
2023/04/05 14:14:28;;;;;;;8.98;6.45;;;;;;;;;;5052194;28;20146;-60
2023/04/05 14:16:55;;;;;;;10.05;6.82;;;;;;;;;;5052141;28;20468;-61
2023/04/05 14:19:22;;;;;;;8.38;6.85;;;;;;;;;;5051733;28;20136;-62
2023/04/05 14:21:49;;;;;;;8.50;6.55;;;;;;;;;;5051938;28;20049;-61
2023/04/05 14:24:16;;;;;;;8.48;6.75;;;;;;;;;;5052212;28;20055;-61
2023/04/05 14:26:48;;;;;;;9.75;7.57;;;;;;;;;;5051985;28;20102;-60
2023/04/05 14:29:15;;;;;;;9.13;7.18;;;;;;;;;;5052298;28;20049;-61
2023/04/05 14:31:42;;;;;;;8.82;7.05;;;;;;;;;;5052050;28;20056;-61
2023/04/05 14:34:09;;;;;;;7.20;6.22;;;;;;;;;;5051994;28;20090;-60
2023/04/05 14:36:36;;;;;;;8.55;6.97;;;;;;;;;;5052124;28;20246;-61
2023/04/05 14:39:03;;;;;;;9.95;6.97;;;;;;;;;;5051282;28;20068;-59
2023/04/05 14:41:30;;;;;;;10.63;7.32;;;;;;;;;;5051712;28;20056;-62
2023/04/05 14:43:58;;;;;;;8.77;6.63;;;;;;;;;;5051395;28;20045;-61